Time;durP1;ratioP1;P1;durP2;ratioP2;P2;SDS_P1;SDS_P2;PMS_P1;PMS_P2;Temp;Humidity;BMP_temperature;BMP_pressure;BME280_temperature;BME280_humidity;BME280_pressure;Samples;Min_cycle;Max_cycle;Signal;HPM_P1;HPM_P2
2023/07/12 00:00:01;;;;;;;7.97;2.92;;;13.50;99.90;;;;;;5061446;28;20196;-84
2023/07/12 00:02:32;;;;;;;5.95;2.72;;;13.70;99.90;;;;;;5075413;28;20232;-84
2023/07/12 00:05:04;;;;;;;7.57;2.78;;;13.80;99.90;;;;;;5077604;28;20184;-83
2023/07/12 00:07:35;;;;;;;6.10;3.20;;;13.90;99.90;;;;;;5077992;28;20210;-84
2023/07/12 00:10:15;;;;;;;8.48;3.17;;;14.00;99.90;;;;;;5076826;28;20639;-84
2023/07/12 00:12:48;;;;;;;9.93;3.03;;;14.10;99.90;;;;;;5074345;28;20196;-83
2023/07/12 00:15:23;;;;;;;5.03;2.60;;;14.10;99.90;;;;;;5075972;28;20204;-83
2023/07/12 00:17:56;;;;;;;5.20;2.70;;;14.20;99.90;;;;;;5075834;28;20200;-83
2023/07/12 00:20:32;;;;;;;5.13;3.10;;;14.20;99.90;;;;;;5076246;28;20203;-83
2023/07/12 00:23:05;;;;;;;4.88;2.90;;;14.30;99.90;;;;;;5073165;28;20219;-83
2023/07/12 00:25:37;;;;;;;7.30;2.88;;;14.40;99.90;;;;;;5071669;28;20196;-84
2023/07/12 00:28:22;;;;;;;10.02;2.88;;;14.50;99.90;;;;;;5071907;28;20200;-84
2023/07/12 00:30:54;;;;;;;6.15;2.63;;;14.50;99.90;;;;;;5072126;28;20241;-83
2023/07/12 00:33:27;;;;;;;4.18;2.90;;;14.50;99.90;;;;;;5071298;28;20196;-83
2023/07/12 00:35:58;;;;;;;6.40;3.17;;;14.60;99.90;;;;;;5071632;28;20196;-84
2023/07/12 00:38:29;;;;;;;6.03;3.28;;;14.70;99.90;;;;;;5072468;28;20196;-84
2023/07/12 00:41:19;;;;;;;6.10;3.08;;;14.70;99.90;;;;;;5072038;28;20203;-84
2023/07/12 00:43:57;;;;;;;9.90;3.38;;;14.70;99.90;;;;;;5071329;28;20222;-85
2023/07/12 00:46:34;;;;;;;5.45;3.17;;;15.00;99.90;;;;;;5063092;28;20218;-83
2023/07/12 00:49:05;;;;;;;9.77;3.10;;;15.10;99.90;;;;;;5078869;28;20234;-84
2023/07/12 00:51:47;;;;;;;13.50;3.45;;;15.10;99.90;;;;;;5067967;28;20206;-85
2023/07/12 00:54:20;;;;;;;7.07;3.10;;;15.30;99.90;;;;;;5071001;28;20192;-84
2023/07/12 00:56:51;;;;;;;10.20;3.35;;;15.30;99.90;;;;;;5074658;28;20199;-85
2023/07/12 00:59:27;;;;;;;7.20;3.22;;;15.40;99.90;;;;;;5075070;28;20221;-84
2023/07/12 01:02:01;;;;;;;7.65;3.03;;;15.40;99.90;;;;;;5072259;28;20198;-85
2023/07/12 01:04:35;;;;;;;10.45;3.17;;;15.50;99.90;;;;;;5072160;28;20203;-84
2023/07/12 01:07:06;;;;;;;7.18;3.10;;;15.60;99.90;;;;;;5069477;28;20192;-85
2023/07/12 01:09:37;;;;;;;10.05;2.95;;;15.80;99.90;;;;;;5070867;28;20207;-86
2023/07/12 01:12:11;;;;;;;6.78;3.10;;;15.80;99.90;;;;;;5071133;28;20208;-86
2023/07/12 01:14:46;;;;;;;10.07;3.00;;;15.90;99.90;;;;;;5070672;28;20204;-84
2023/07/12 01:17:17;;;;;;;7.75;2.90;;;16.00;99.90;;;;;;5071099;28;20195;-84
2023/07/12 01:19:48;;;;;;;5.70;2.95;;;16.10;99.90;;;;;;5070759;28;20194;-84
2023/07/12 01:22:21;;;;;;;5.75;2.78;;;16.20;99.90;;;;;;5069657;28;20655;-84
2023/07/12 01:24:52;;;;;;;5.20;2.72;;;16.30;99.90;;;;;;5070507;28;20213;-84
2023/07/12 01:27:26;;;;;;;8.10;2.85;;;16.40;99.90;;;;;;5071476;28;20490;-87
2023/07/12 01:29:58;;;;;;;4.07;2.40;;;16.40;99.90;;;;;;5071708;28;20202;-86
2023/07/12 01:32:30;;;;;;;5.55;2.83;;;16.40;99.90;;;;;;5072775;28;20192;-89
2023/07/12 01:35:01;;;;;;;8.30;2.40;;;16.50;99.90;;;;;;5072665;28;20196;-89
2023/07/12 01:37:35;;;;;;;6.10;2.50;;;16.60;99.90;;;;;;5073413;28;20662;-85
2023/07/12 01:40:08;;;;;;;6.32;2.17;;;16.70;99.90;;;;;;5053262;28;20246;-89
2023/07/12 01:42:39;;;;;;;6.85;2.20;;;16.70;99.90;;;;;;5060293;28;20219;-88
2023/07/12 01:45:12;;;;;;;7.32;2.20;;;16.80;99.90;;;;;;5071962;28;20202;-86
2023/07/12 01:47:43;;;;;;;7.07;2.08;;;16.80;99.90;;;;;;5077845;28;20235;-87
2023/07/12 01:50:14;;;;;;;4.07;1.98;;;16.90;99.90;;;;;;5069663;28;20221;-84
2023/07/12 01:52:49;;;;;;;3.47;1.80;;;16.90;99.90;;;;;;5054601;28;20205;-90
2023/07/12 01:55:21;;;;;;;5.38;1.88;;;17.10;99.90;;;;;;5052107;28;20269;-87
2023/07/12 01:57:53;;;;;;;4.45;1.90;;;17.20;99.90;;;;;;5051684;28;20206;-88
2023/07/12 02:00:26;;;;;;;3.05;1.80;;;17.20;99.90;;;;;;5051864;28;20212;-88
2023/07/12 02:02:58;;;;;;;5.38;1.52;;;17.30;99.90;;;;;;5054018;28;20217;-90
2023/07/12 02:05:30;;;;;;;4.78;1.60;;;17.40;99.90;;;;;;5055262;28;20197;-90
2023/07/12 02:08:09;;;;;;;5.35;1.50;;;17.60;99.90;;;;;;5042572;28;20204;-90
2023/07/12 02:10:40;;;;;;;5.40;1.50;;;17.80;99.90;;;;;;5058053;28;20211;-91
2023/07/12 02:13:19;;;;;;;4.05;1.60;;;17.90;99.90;;;;;;5047285;28;20208;-91
2023/07/12 02:15:52;;;;;;;4.22;1.60;;;18.00;99.90;;;;;;5016842;28;20264;-92
2023/07/12 02:18:25;;;;;;;2.85;1.77;;;18.10;99.90;;;;;;5054003;28;20698;-90
2023/07/12 02:20:57;;;;;;;3.63;1.60;;;18.20;99.90;;;;;;5053287;28;20231;-89
2023/07/12 02:23:33;;;;;;;5.13;1.80;;;18.20;99.90;;;;;;5052918;28;20216;-90
2023/07/12 02:26:06;;;;;;;5.03;1.42;;;18.30;99.90;;;;;;5051743;28;20203;-90
2023/07/12 02:28:38;;;;;;;2.35;1.20;;;18.30;99.90;;;;;;5052346;28;20207;-91
2023/07/12 02:31:22;;;;;;;3.08;1.30;;;18.40;99.90;;;;;;5055606;28;20204;-91
2023/07/12 02:33:54;;;;;;;1.60;1.08;;;18.50;99.90;;;;;;5052374;28;20254;-89
2023/07/12 02:36:28;;;;;;;3.00;1.20;;;18.50;99.90;;;;;;5051720;28;20207;-90
2023/07/12 02:39:01;;;;;;;5.50;4.35;;;18.50;99.90;;;;;;5050809;28;20218;-89
2023/07/12 02:41:32;;;;;;;1.70;1.13;;;18.60;99.90;;;;;;5051409;28;20676;-90
2023/07/12 02:44:04;;;;;;;1.70;1.10;;;18.60;99.90;;;;;;5053015;28;20220;-89
2023/07/12 02:46:35;;;;;;;3.20;1.42;;;18.60;99.90;;;;;;5066190;28;20192;-89
2023/07/12 02:49:06;;;;;;;3.83;1.10;;;18.70;99.90;;;;;;5072334;28;20729;-88
2023/07/12 02:51:38;;;;;;;2.92;0.88;;;18.70;99.90;;;;;;5056064;28;20224;-89
2023/07/12 02:54:12;;;;;;;1.92;1.00;;;18.80;99.90;;;;;;5050570;28;20235;-88
2023/07/12 02:56:43;;;;;;;2.83;0.98;;;18.90;99.90;;;;;;5050912;28;20208;-88
2023/07/12 02:59:15;;;;;;;1.83;0.88;;;19.00;99.90;;;;;;5054901;28;20275;-88
2023/07/12 03:01:47;;;;;;;1.60;0.82;;;19.00;99.90;;;;;;5053583;28;20211;-90
2023/07/12 03:04:19;;;;;;;1.98;0.93;;;19.10;99.90;;;;;;5050488;28;20231;-90
2023/07/12 03:06:50;;;;;;;2.55;1.00;;;19.20;99.90;;;;;;5042425;28;20296;-88
2023/07/12 03:09:24;;;;;;;2.10;0.70;;;19.30;99.90;;;;;;5039297;28;20212;-89
2023/07/12 03:11:55;;;;;;;1.15;0.73;;;19.30;99.90;;;;;;5044542;28;20247;-85
2023/07/12 03:14:29;;;;;;;3.33;0.75;;;19.40;99.90;;;;;;5054834;28;20228;-86
2023/07/12 03:17:01;;;;;;;1.80;1.10;;;19.50;99.90;;;;;;5056295;28;20226;-92
2023/07/12 03:19:33;;;;;;;2.33;1.10;;;19.60;99.90;;;;;;5057231;28;20689;-89
2023/07/12 03:22:05;;;;;;;1.95;0.73;;;19.50;99.90;;;;;;5058817;28;20200;-89
2023/07/12 03:24:40;;;;;;;1.92;0.70;;;19.60;99.90;;;;;;5065640;28;20220;-89
2023/07/12 03:27:12;;;;;;;2.05;1.00;;;19.70;99.90;;;;;;5061284;28;20207;-89
2023/07/12 03:29:44;;;;;;;1.33;0.80;;;19.70;99.90;;;;;;5057406;28;20207;-88
2023/07/12 03:32:15;;;;;;;1.67;0.80;;;19.70;99.90;;;;;;5038417;28;20196;-90
2023/07/12 03:34:47;;;;;;;2.28;1.15;;;19.60;99.90;;;;;;5055249;28;20206;-90
2023/07/12 03:37:18;;;;;;;2.83;0.63;;;19.60;99.90;;;;;;5055882;28;20682;-91
2023/07/12 03:39:53;;;;;;;1.63;0.60;;;19.60;99.90;;;;;;5055513;28;20305;-92
2023/07/12 03:42:25;;;;;;;2.38;0.70;;;19.50;99.90;;;;;;5056259;28;20282;-89
2023/07/12 03:45:02;;;;;;;2.88;0.90;;;19.50;99.90;;;;;;5050619;28;20231;-89
2023/07/12 03:47:34;;;;;;;1.23;0.63;;;19.60;99.90;;;;;;5070916;28;20657;-90
2023/07/12 03:50:06;;;;;;;1.65;0.70;;;19.50;99.90;;;;;;5073831;28;20212;-91
2023/07/12 03:52:37;;;;;;;1.48;0.80;;;19.50;99.90;;;;;;5056354;28;20679;-92
2023/07/12 03:55:12;;;;;;;1.08;0.55;;;19.60;99.90;;;;;;5053963;28;20211;-91
2023/07/12 03:57:43;;;;;;;1.25;0.60;;;19.50;99.90;;;;;;5068940;28;20225;-93
2023/07/12 04:00:15;;;;;;;4.82;1.25;;;19.50;99.90;;;;;;5063620;28;20227;-88
2023/07/12 04:02:50;;;;;;;2.78;1.00;;;19.60;99.90;;;;;;5043318;28;20201;-87
2023/07/12 04:05:21;;;;;;;2.65;1.08;;;19.60;99.90;;;;;;5062358;28;20224;-89
2023/07/12 04:07:53;;;;;;;1.65;1.00;;;19.60;99.90;;;;;;5075079;28;20206;-90
2023/07/12 04:10:27;;;;;;;4.85;1.27;;;19.60;99.90;;;;;;5063881;28;20200;-88
2023/07/12 04:13:01;;;;;;;4.80;1.42;;;19.60;99.90;;;;;;5086195;28;20228;-90
2023/07/12 04:15:34;;;;;;;3.70;1.20;;;19.50;99.90;;;;;;5075017;28;20195;-90
2023/07/12 04:18:06;;;;;;;2.88;1.23;;;19.50;99.90;;;;;;5074900;28;20673;-89
2023/07/12 04:20:41;;;;;;;3.53;1.10;;;19.40;99.90;;;;;;5067359;28;20647;-91
2023/07/12 04:23:12;;;;;;;2.08;0.95;;;19.40;99.90;;;;;;5067088;28;20202;-87
2023/07/12 04:25:48;;;;;;;4.80;1.40;;;19.30;99.90;;;;;;5073793;28;20196;-90
2023/07/12 04:28:22;;;;;;;2.97;1.15;;;19.30;99.90;;;;;;5081093;28;20218;-89
2023/07/12 04:30:54;;;;;;;3.50;1.25;;;19.30;99.90;;;;;;5089904;28;20691;-90
2023/07/12 04:33:26;;;;;;;3.03;1.20;;;19.20;99.90;;;;;;5072544;28;20210;-87
2023/07/12 04:35:59;;;;;;;2.75;0.90;;;19.20;99.90;;;;;;5071205;28;20192;-87
2023/07/12 04:38:30;;;;;;;3.05;1.17;;;19.10;99.90;;;;;;5073748;28;20253;-87
2023/07/12 04:41:05;;;;;;;2.38;1.20;;;19.10;99.90;;;;;;5073692;28;20192;-87
2023/07/12 04:43:36;;;;;;;3.53;1.40;;;19.10;99.90;;;;;;5071520;28;20585;-86
2023/07/12 04:46:07;;;;;;;1.83;0.90;;;19.10;99.90;;;;;;5051921;28;20188;-87
2023/07/12 04:48:39;;;;;;;4.68;1.45;;;19.10;99.90;;;;;;5065445;28;20234;-87
2023/07/12 04:51:10;;;;;;;3.13;1.17;;;19.10;99.90;;;;;;5072536;28;20298;-88
2023/07/12 04:53:42;;;;;;;3.85;1.00;;;19.00;99.90;;;;;;5072638;28;20287;-86
2023/07/12 04:56:16;;;;;;;2.63;0.70;;;19.00;99.90;;;;;;5073615;28;20200;-87
2023/07/12 04:58:47;;;;;;;0.98;0.70;;;19.00;99.90;;;;;;5079969;28;20213;-87
2023/07/12 05:01:18;;;;;;;2.83;0.65;;;19.00;99.90;;;;;;5073907;28;20567;-88
2023/07/12 05:03:51;;;;;;;3.70;0.65;;;19.00;99.90;;;;;;5071170;28;20222;-88
2023/07/12 05:06:22;;;;;;;2.58;0.77;;;18.90;99.90;;;;;;5072270;28;20246;-88
2023/07/12 05:08:55;;;;;;;1.90;0.68;;;18.90;99.90;;;;;;5061633;28;20228;-88
2023/07/12 05:11:32;;;;;;;2.33;0.82;;;19.00;99.90;;;;;;5060989;28;20192;-87
2023/07/12 05:14:04;;;;;;;1.15;0.60;;;19.00;99.90;;;;;;5065654;28;20210;-87
2023/07/12 05:16:36;;;;;;;1.17;0.85;;;19.00;99.90;;;;;;5072250;28;20668;-88
2023/07/12 05:19:07;;;;;;;2.45;0.70;;;18.90;99.90;;;;;;5071833;28;20198;-88
2023/07/12 05:21:38;;;;;;;1.77;0.77;;;18.90;99.90;;;;;;5076877;28;20194;-88
2023/07/12 05:24:10;;;;;;;2.30;0.68;;;18.90;99.90;;;;;;5072145;28;20226;-88
2023/07/12 05:26:44;;;;;;;2.95;1.00;;;19.00;99.90;;;;;;5071728;28;20279;-89
2023/07/12 05:29:15;;;;;;;3.78;0.90;;;19.00;99.90;;;;;;5074891;28;20687;-88
2023/07/12 05:31:47;;;;;;;2.67;0.70;;;19.00;99.90;;;;;;5078608;28;20202;-88
2023/07/12 05:34:18;;;;;;;1.52;0.80;;;19.00;99.90;;;;;;5073920;28;20196;-88
2023/07/12 05:36:52;;;;;;;1.25;0.60;;;19.00;99.90;;;;;;5074372;28;20207;-88
2023/07/12 05:39:24;;;;;;;2.42;0.82;;;18.90;99.90;;;;;;5075131;28;20200;-88
2023/07/12 05:41:57;;;;;;;2.88;1.05;;;18.90;99.90;;;;;;5080773;28;20222;-88
2023/07/12 05:44:28;;;;;;;2.70;1.10;;;19.00;99.90;;;;;;5073412;28;20250;-87
2023/07/12 05:47:02;;;;;;;5.68;0.93;;;19.00;99.90;;;;;;5074456;28;20191;-88
2023/07/12 05:49:34;;;;;;;3.10;0.90;;;19.00;99.90;;;;;;5074956;28;20231;-87
2023/07/12 05:52:06;;;;;;;2.38;0.90;;;19.00;99.90;;;;;;5068394;28;20703;-87
2023/07/12 05:54:37;;;;;;;2.45;0.75;;;19.00;99.90;;;;;;5072213;28;20303;-86
2023/07/12 05:57:12;;;;;;;3.33;0.90;;;18.90;99.90;;;;;;5069131;28;20192;-86
2023/07/12 05:59:44;;;;;;;1.98;0.80;;;19.00;99.90;;;;;;5070607;28;20202;-88
2023/07/12 06:02:17;;;;;;;3.72;0.90;;;19.00;99.90;;;;;;5072156;28;20679;-86
2023/07/12 06:04:48;;;;;;;1.55;0.80;;;19.00;99.90;;;;;;5070609;28;20215;-86
2023/07/12 06:07:20;;;;;;;5.05;0.93;;;19.10;99.90;;;;;;5071095;28;20271;-86
2023/07/12 06:09:51;;;;;;;2.97;0.90;;;19.10;99.90;;;;;;5071351;28;20196;-86
2023/07/12 06:12:24;;;;;;;2.53;0.80;;;19.10;99.90;;;;;;5070518;28;20238;-86
2023/07/12 06:14:55;;;;;;;2.33;0.80;;;19.10;99.90;;;;;;5070369;28;20208;-87
2023/07/12 06:17:26;;;;;;;2.40;0.90;;;19.10;99.90;;;;;;5071328;28;20558;-85
2023/07/12 06:19:58;;;;;;;2.10;0.80;;;19.10;99.90;;;;;;5070957;28;20200;-86
2023/07/12 06:22:29;;;;;;;2.50;0.80;;;19.10;99.90;;;;;;5059812;28;20188;-86
2023/07/12 06:25:00;;;;;;;3.80;0.93;;;19.20;99.90;;;;;;5071424;28;20222;-85
2023/07/12 06:27:35;;;;;;;3.92;0.90;;;19.20;99.90;;;;;;5071516;28;20202;-86
2023/07/12 06:30:06;;;;;;;4.28;1.00;;;19.30;99.90;;;;;;5071410;28;20621;-85
2023/07/12 06:32:38;;;;;;;2.28;0.90;;;19.30;99.90;;;;;;5075277;28;20204;-87
2023/07/12 06:35:10;;;;;;;2.92;0.82;;;19.10;99.90;;;;;;5071032;28;20717;-87
2023/07/12 06:37:41;;;;;;;2.88;0.90;;;19.10;99.90;;;;;;5070820;28;20203;-87
2023/07/12 06:40:14;;;;;;;4.18;1.10;;;19.10;99.90;;;;;;5054652;28;20184;-88
2023/07/12 06:42:47;;;;;;;2.67;0.88;;;18.90;99.90;;;;;;5070996;28;20423;-86
2023/07/12 06:45:20;;;;;;;3.33;1.00;;;18.80;99.90;;;;;;5072039;28;20220;-88
2023/07/12 06:47:51;;;;;;;1.80;0.80;;;18.70;99.90;;;;;;5074378;28;20580;-88
2023/07/12 06:50:22;;;;;;;2.95;0.88;;;18.50;99.90;;;;;;5075895;28;20215;-87
2023/07/12 06:52:53;;;;;;;2.75;0.85;;;18.40;99.90;;;;;;5080400;28;20194;-87
2023/07/12 06:55:24;;;;;;;1.67;0.73;;;18.30;99.90;;;;;;5073205;28;20192;-87
2023/07/12 06:57:59;;;;;;;2.38;0.93;;;18.20;99.90;;;;;;5074339;28;20202;-86
2023/07/12 07:00:31;;;;;;;2.97;1.00;;;18.00;99.90;;;;;;5075175;28;20199;-88
2023/07/12 07:03:02;;;;;;;2.60;0.85;;;17.90;99.90;;;;;;5076477;28;20546;-89
2023/07/12 07:05:34;;;;;;;2.58;0.90;;;17.80;99.90;;;;;;5076171;28;20223;-87
2023/07/12 07:08:10;;;;;;;4.00;1.40;;;17.80;99.90;;;;;;5074780;28;20199;-89
2023/07/12 07:10:41;;;;;;;3.03;0.90;;;17.70;99.90;;;;;;5080313;28;20195;-89
2023/07/12 07:13:17;;;;;;;3.65;1.40;;;17.70;99.90;;;;;;5059342;28;20188;-88
2023/07/12 07:15:50;;;;;;;4.97;1.20;;;17.60;99.90;;;;;;5057384;28;20654;-87
2023/07/12 07:18:21;;;;;;;7.53;1.40;;;17.50;99.90;;;;;;5077651;28;20430;-88
2023/07/12 07:20:54;;;;;;;3.70;1.17;;;17.50;99.90;;;;;;5075738;28;20203;-87
2023/07/12 07:23:28;;;;;;;3.90;1.40;;;17.40;99.90;;;;;;5076867;28;20204;-87
2023/07/12 07:26:04;;;;;;;5.32;1.23;;;17.40;99.90;;;;;;5072922;28;20226;-87
2023/07/12 07:28:37;;;;;;;2.75;1.23;;;17.30;99.90;;;;;;5074168;28;20203;-90
2023/07/12 07:31:10;;;;;;;4.10;2.78;;;17.30;99.90;;;;;;5076617;28;20562;-92
2023/07/12 07:33:42;;;;;;;4.80;3.35;;;17.20;99.90;;;;;;5077884;28;20215;-92
2023/07/12 07:36:16;;;;;;;4.10;1.70;;;17.20;99.90;;;;;;5076824;28;20218;-91
2023/07/12 07:38:48;;;;;;;5.65;2.83;;;17.20;99.90;;;;;;5077188;28;20200;-90
2023/07/12 07:41:20;;;;;;;4.90;2.55;;;17.10;99.90;;;;;;5075837;28;20199;-92
2023/07/12 07:43:57;;;;;;;59.83;53.28;;;17.10;99.90;;;;;;5077095;28;20207;-93
2023/07/12 07:46:29;;;;;;;20.10;17.90;;;17.10;99.90;;;;;;5079911;28;20230;-92
2023/07/12 07:49:01;;;;;;;22.67;19.23;;;17.10;99.90;;;;;;5080162;28;20707;-92
2023/07/12 07:51:33;;;;;;;8.43;7.43;;;17.10;99.90;;;;;;5066150;28;20217;-90
2023/07/12 07:54:05;;;;;;;4.85;2.20;;;17.00;99.90;;;;;;5062818;28;20189;-90
2023/07/12 07:56:36;;;;;;;2.85;1.90;;;17.00;99.90;;;;;;5078007;28;20192;-92
2023/07/12 07:59:12;;;;;;;3.35;1.75;;;17.00;99.90;;;;;;5076078;28;20195;-92
2023/07/12 08:01:44;;;;;;;3.10;1.40;;;17.00;99.90;;;;;;5075670;28;20204;-89
2023/07/12 08:04:17;;;;;;;1.85;1.10;;;16.90;99.90;;;;;;5076920;28;20215;-89
2023/07/12 08:06:49;;;;;;;2.50;1.33;;;16.90;99.90;;;;;;5076822;28;20199;-90
2023/07/12 08:09:22;;;;;;;4.43;1.50;;;16.90;99.90;;;;;;5081320;28;20187;-89
2023/07/12 08:11:54;;;;;;;3.47;1.40;;;16.90;99.90;;;;;;5084848;28;20568;-90
2023/07/12 08:14:32;;;;;;;1.63;1.17;;;16.80;99.90;;;;;;5090344;28;20272;-91
2023/07/12 08:17:07;;;;;;;3.30;1.70;;;16.80;99.90;;;;;;5087550;28;20199;-90
2023/07/12 08:19:39;;;;;;;3.55;1.30;;;16.80;99.90;;;;;;5061865;28;20198;-89
2023/07/12 08:22:13;;;;;;;2.70;1.30;;;16.80;99.90;;;;;;5077111;28;20306;-90
2023/07/12 08:24:45;;;;;;;2.40;1.20;;;16.80;99.90;;;;;;5078196;28;20682;-89
2023/07/12 08:27:18;;;;;;;3.72;1.35;;;16.80;99.90;;;;;;5078209;28;20202;-88
2023/07/12 08:29:58;;;;;;;3.00;1.20;;;16.70;99.90;;;;;;5076531;28;20196;-89
2023/07/12 08:32:32;;;;;;;2.50;1.17;;;16.70;99.90;;;;;;5078855;28;20196;-88
2023/07/12 08:35:03;;;;;;;2.80;1.02;;;16.70;99.90;;;;;;5078616;28;20214;-88
2023/07/12 08:37:36;;;;;;;2.40;1.50;;;16.70;99.90;;;;;;5078173;28;20218;-88
2023/07/12 08:40:09;;;;;;;3.85;1.30;;;16.70;99.90;;;;;;5078433;28;20196;-89
2023/07/12 08:42:43;;;;;;;4.75;1.48;;;16.70;99.90;;;;;;5074473;28;20566;-89
2023/07/12 08:45:36;;;;;;;3.65;1.25;;;16.70;99.90;;;;;;5076657;28;20251;-89
2023/07/12 08:48:14;;;;;;;3.80;1.08;;;16.60;99.90;;;;;;5078961;28;20234;-90
2023/07/12 08:50:48;;;;;;;3.83;1.23;;;16.60;99.90;;;;;;5071309;28;20228;-90
2023/07/12 08:53:22;;;;;;;3.63;1.30;;;16.60;99.90;;;;;;5089716;28;20203;-90
2023/07/12 08:55:57;;;;;;;5.15;1.40;;;16.60;99.90;;;;;;5078436;28;20574;-91
2023/07/12 08:58:34;;;;;;;3.35;1.40;;;16.60;99.90;;;;;;5074112;28;20257;-90
2023/07/12 09:01:13;;;;;;;4.40;1.30;;;16.60;99.90;;;;;;5067866;28;20196;-92
2023/07/12 09:03:45;;;;;;;2.30;1.17;;;16.60;99.90;;;;;;5065944;28;20192;-91
2023/07/12 09:06:19;;;;;;;3.53;1.20;;;16.50;99.90;;;;;;5067994;28;20539;-91
2023/07/12 09:08:53;;;;;;;3.47;1.00;;;16.50;99.90;;;;;;5071756;28;20196;-90
2023/07/12 09:11:32;;;;;;;3.63;1.35;;;16.50;99.90;;;;;;5073109;28;20196;-92
2023/07/12 09:14:04;;;;;;;2.13;1.20;;;16.50;99.90;;;;;;5071974;28;20284;-90
2023/07/12 09:16:39;;;;;;;3.33;1.38;;;16.50;99.90;;;;;;5064792;28;20570;-90
2023/07/12 09:19:19;;;;;;;2.95;1.25;;;16.50;99.90;;;;;;5055185;28;20195;-91
2023/07/12 09:21:58;;;;;;;4.65;1.40;;;16.50;99.90;;;;;;5071918;28;20211;-91
2023/07/12 09:24:33;;;;;;;4.43;1.67;;;16.40;99.90;;;;;;5072943;28;20234;-91
2023/07/12 09:27:09;;;;;;;4.38;1.38;;;16.40;99.90;;;;;;5073449;28;20301;-90
2023/07/12 09:29:40;;;;;;;3.97;1.50;;;16.40;99.90;;;;;;5072602;28;20282;-90
2023/07/12 09:32:20;;;;;;;2.40;1.55;;;16.30;99.90;;;;;;5073588;28;20279;-90
2023/07/12 09:34:54;;;;;;;3.35;1.38;;;16.40;99.90;;;;;;5069224;28;20203;-90
2023/07/12 09:37:25;;;;;;;3.67;1.60;;;16.40;99.90;;;;;;5072470;28;20653;-91
2023/07/12 09:40:00;;;;;;;5.22;1.63;;;16.30;99.90;;;;;;5075339;28;20208;-95
2023/07/12 09:42:34;;;;;;;5.97;1.95;;;16.30;99.90;;;;;;5071030;28;20199;-91
2023/07/12 09:45:05;;;;;;;4.47;1.73;;;16.30;99.90;;;;;;5074599;28;20181;-92
2023/07/12 09:47:48;;;;;;;5.35;1.70;;;16.30;99.90;;;;;;5073112;28;20259;-90
2023/07/12 09:50:27;;;;;;;4.13;1.50;;;16.30;99.90;;;;;;5053935;28;20200;-89
2023/07/12 09:53:03;;;;;;;3.72;1.90;;;16.30;99.90;;;;;;5059773;28;20198;-90
2023/07/12 09:55:43;;;;;;;5.65;1.80;;;16.30;99.90;;;;;;5072593;28;20214;-89
2023/07/12 09:58:23;;;;;;;5.75;1.70;;;16.30;99.90;;;;;;5072372;28;20203;-91
2023/07/12 10:01:03;;;;;;;3.20;1.63;;;16.30;99.90;;;;;;5064922;28;20254;-90
2023/07/12 10:03:41;;;;;;;4.15;1.90;;;16.30;99.90;;;;;;5054680;28;20196;-90
2023/07/12 10:06:21;;;;;;;5.03;2.08;;;16.30;99.90;;;;;;5067268;28;20227;-89
2023/07/12 10:09:03;;;;;;;3.90;2.03;;;16.30;99.90;;;;;;5057388;28;20198;-88
2023/07/12 10:11:43;;;;;;;4.47;2.47;;;16.20;99.90;;;;;;5055452;28;20199;-88
2023/07/12 10:14:17;;;;;;;4.97;1.90;;;16.20;99.90;;;;;;5069631;28;20211;-88
2023/07/12 10:16:50;;;;;;;4.10;1.60;;;16.30;99.90;;;;;;5075781;28;20195;-88
2023/07/12 10:19:25;;;;;;;3.97;1.65;;;16.20;99.90;;;;;;5074991;28;20199;-87
2023/07/12 10:21:58;;;;;;;3.25;1.60;;;16.20;99.90;;;;;;5061936;28;20206;-88
2023/07/12 10:24:35;;;;;;;3.28;1.73;;;16.20;99.90;;;;;;5058878;28;20224;-88
2023/07/12 10:27:16;;;;;;;2.72;1.75;;;16.10;99.90;;;;;;5059355;28;20219;-88
2023/07/12 10:29:54;;;;;;;3.28;1.70;;;16.10;99.90;;;;;;5085007;28;20207;-89
2023/07/12 10:32:27;;;;;;;2.70;1.60;;;16.00;99.90;;;;;;5075126;28;20203;-89
2023/07/12 10:35:23;;;;;;;4.88;1.50;;;16.10;99.90;;;;;;5075022;28;20219;-88
2023/07/12 10:38:06;;;;;;;4.18;1.88;;;16.00;99.90;;;;;;5075650;28;20214;-88
2023/07/12 10:40:43;;;;;;;4.45;1.77;;;16.00;99.90;;;;;;5078193;28;20207;-89
2023/07/12 10:43:21;;;;;;;3.00;1.48;;;16.00;99.90;;;;;;5092445;28;20192;-88
2023/07/12 10:45:54;;;;;;;3.33;1.30;;;16.00;99.90;;;;;;5080573;28;20222;-88
2023/07/12 10:48:31;;;;;;;3.50;1.63;;;16.00;99.90;;;;;;5084454;28;20722;-90
2023/07/12 10:51:21;;;;;;;4.07;1.70;;;16.00;99.90;;;;;;5051298;28;20215;-90
2023/07/12 10:53:56;;;;;;;2.50;1.40;;;16.00;99.90;;;;;;5067448;28;20202;-89
2023/07/12 10:56:31;;;;;;;4.88;1.55;;;15.90;99.90;;;;;;5075001;28;20191;-88
2023/07/12 10:59:04;;;;;;;2.72;1.58;;;15.90;99.90;;;;;;5076639;28;20202;-90
2023/07/12 11:01:54;;;;;;;2.10;1.38;;;16.00;99.90;;;;;;5066065;28;20200;-90
2023/07/12 11:04:39;;;;;;;5.85;1.58;;;16.00;99.90;;;;;;5077505;28;20257;-89
2023/07/12 11:07:38;;;;;;;2.92;1.67;;;15.90;99.90;;;;;;5069055;28;20238;-87
2023/07/12 11:10:27;;;;;;;2.22;1.45;;;16.00;99.90;;;;;;5076077;28;20230;-89
2023/07/12 11:13:15;;;;;;;4.82;1.30;;;16.00;99.90;;;;;;5069017;28;20754;-88
2023/07/12 11:16:01;;;;;;;4.00;1.70;;;16.00;99.90;;;;;;5076091;28;20549;-88
2023/07/12 11:18:40;;;;;;;3.72;1.38;;;16.00;99.90;;;;;;5055629;28;20192;-88
2023/07/12 11:21:33;;;;;;;4.22;1.65;;;16.00;99.90;;;;;;5075585;28;20207;-90
2023/07/12 11:24:24;;;;;;;3.72;1.38;;;16.00;99.90;;;;;;5068682;28;20196;-87
2023/07/12 11:26:58;;;;;;;3.63;1.48;;;16.00;99.90;;;;;;5042233;28;20244;-87
2023/07/12 11:29:35;;;;;;;4.75;1.30;;;15.90;99.90;;;;;;5055690;28;20204;-89
2023/07/12 11:32:17;;;;;;;6.28;1.70;;;16.00;99.90;;;;;;5073997;28;20200;-88
2023/07/12 11:34:50;;;;;;;3.50;1.85;;;15.90;99.90;;;;;;5055358;28;20208;-89
2023/07/12 11:37:30;;;;;;;2.70;2.00;;;15.90;99.90;;;;;;5066882;28;20570;-85
2023/07/12 11:40:05;;;;;;;2.55;2.20;;;15.80;99.90;;;;;;5062262;28;20207;-89
2023/07/12 11:42:37;;;;;;;6.20;3.33;;;15.80;99.90;;;;;;5076014;28;20203;-88
2023/07/12 11:45:13;;;;;;;6.63;2.40;;;15.80;99.90;;;;;;5073454;28;20202;-88
2023/07/12 11:47:46;;;;;;;3.13;1.90;;;15.80;99.90;;;;;;5075432;28;20235;-89
2023/07/12 11:50:23;;;;;;;3.88;2.20;;;15.70;99.90;;;;;;5077130;28;20204;-89
2023/07/12 11:52:56;;;;;;;4.72;1.70;;;15.70;99.90;;;;;;5075513;28;20207;-89
2023/07/12 11:55:35;;;;;;;5.55;2.60;;;15.70;99.90;;;;;;5076481;28;20196;-90
2023/07/12 11:58:15;;;;;;;3.65;2.00;;;15.70;99.90;;;;;;5074389;28;20315;-86
2023/07/12 12:00:49;;;;;;;3.10;1.90;;;15.70;99.90;;;;;;5073001;28;20651;-89
2023/07/12 12:03:22;;;;;;;3.60;2.05;;;15.70;99.90;;;;;;5075615;28;20192;-87
2023/07/12 12:05:59;;;;;;;3.88;1.73;;;15.70;99.90;;;;;;5058007;28;20227;-87
2023/07/12 12:08:33;;;;;;;5.28;1.90;;;15.70;99.90;;;;;;5076511;28;20192;-91
2023/07/12 12:11:13;;;;;;;6.15;1.70;;;15.70;99.90;;;;;;5076606;28;20670;-90
2023/07/12 12:13:50;;;;;;;4.50;1.80;;;15.70;99.90;;;;;;5058501;28;20630;-89
2023/07/12 12:16:27;;;;;;;3.33;1.85;;;15.70;99.90;;;;;;5075382;28;20196;-90
2023/07/12 12:19:02;;;;;;;4.68;2.28;;;15.70;99.90;;;;;;5079525;28;20200;-89
2023/07/12 12:21:33;;;;;;;4.60;2.33;;;15.60;99.90;;;;;;5078393;28;20205;-90
2023/07/12 12:24:18;;;;;;;3.78;1.92;;;15.60;99.90;;;;;;5079955;28;20195;-91
2023/07/12 12:26:55;;;;;;;3.30;1.70;;;15.60;99.90;;;;;;5059619;28;20238;-90
2023/07/12 12:29:28;;;;;;;4.55;1.98;;;15.60;99.90;;;;;;5081088;28;20180;-92
2023/07/12 12:32:05;;;;;;;3.55;1.27;;;15.50;99.90;;;;;;5095174;28;20203;-93
2023/07/12 12:34:43;;;;;;;3.30;1.40;;;15.50;99.90;;;;;;5083377;28;20196;-92
2023/07/12 12:37:20;;;;;;;4.75;2.03;;;15.50;99.90;;;;;;5057946;28;20562;-92
2023/07/12 12:40:02;;;;;;;5.65;1.63;;;15.60;99.90;;;;;;5056314;28;20662;-92
2023/07/12 12:42:52;;;;;;;7.38;1.60;;;15.60;99.90;;;;;;5073573;28;20203;-93
2023/07/12 12:45:24;;;;;;;4.13;1.67;;;15.50;99.90;;;;;;5072553;28;20214;-93
2023/07/12 12:47:56;;;;;;;5.30;1.58;;;15.50;99.90;;;;;;5078369;28;20673;-91
2023/07/12 12:50:29;;;;;;;3.25;1.20;;;15.50;99.90;;;;;;5090159;28;20231;-93
2023/07/12 12:53:04;;;;;;;3.42;1.60;;;15.50;99.90;;;;;;5083809;28;20192;-93
2023/07/12 12:55:36;;;;;;;3.80;1.30;;;15.50;99.90;;;;;;5075525;28;20230;-90
2023/07/12 12:58:13;;;;;;;4.60;1.20;;;15.50;99.90;;;;;;5074328;28;20195;-91
2023/07/12 13:00:46;;;;;;;4.10;1.25;;;15.50;99.90;;;;;;5077141;28;20222;-92
2023/07/12 13:03:20;;;;;;;2.10;1.38;;;15.50;99.90;;;;;;5094825;28;20206;-91
2023/07/12 13:08:36;;;;;;;2.38;1.40;;;15.50;99.90;;;;;;5073126;28;20223;-93
2023/07/12 13:11:08;;;;;;;2.47;1.33;;;15.40;99.90;;;;;;5078320;28;20200;-93
2023/07/12 13:13:42;;;;;;;3.50;1.40;;;15.40;99.90;;;;;;5073725;28;20211;-91
2023/07/12 13:16:19;;;;;;;3.22;1.30;;;15.40;99.90;;;;;;5077050;28;20693;-92
2023/07/12 13:18:51;;;;;;;2.83;1.25;;;15.50;99.90;;;;;;5081096;28;20202;-93
2023/07/12 13:21:25;;;;;;;3.33;1.50;;;15.40;99.90;;;;;;5061915;28;20200;-93
2023/07/12 13:23:57;;;;;;;5.05;1.60;;;15.40;99.90;;;;;;5060810;28;20214;-88